Time;durP1;ratioP1;P1;durP2;ratioP2;P2;SDS_P1;SDS_P2;PMS_P1;PMS_P2;Temp;Humidity;BMP_temperature;BMP_pressure;BME280_temperature;BME280_humidity;BME280_pressure;Samples;Min_cycle;Max_cycle;Signal;HPM_P1;HPM_P2
2023/03/25 00:02:07;;;;;;;;;4.25;2.00;;;;;10.45;78.55;100139.94;5121596;27;47425;-62
2023/03/25 00:04:34;;;;;;;;;1.00;1.00;;;;;10.55;78.55;100156.28;5121829;27;45437;-62
2023/03/25 00:07:00;;;;;;;;;1.25;1.25;;;;;10.50;79.24;100148.56;5121699;27;45579;-63
2023/03/25 00:09:26;;;;;;;;;2.00;0.75;;;;;10.51;79.89;100162.56;5121789;27;45396;-63
2023/03/25 00:11:52;;;;;;;;;0.75;0.00;;;;;10.47;80.18;100158.31;5121636;27;45203;-63
2023/03/25 00:14:18;;;;;;;;;0.25;0.25;;;;;10.46;79.80;100157.44;5121606;27;45288;-63
2023/03/25 00:16:47;;;;;;;;;3.75;2.00;;;;;10.43;80.62;100165.44;5121685;27;45453;-62
2023/03/25 00:19:16;;;;;;;;;2.00;0.00;;;;;10.44;81.34;100169.78;5121582;27;45425;-62
2023/03/25 00:21:43;;;;;;;;;4.25;0.75;;;;;10.41;81.68;100172.50;5121282;27;46713;-62
2023/03/25 00:24:11;;;;;;;;;1.50;0.00;;;;;10.31;83.44;100166.66;5121415;27;45443;-63
2023/03/25 00:26:41;;;;;;;;;2.25;1.25;;;;;10.26;83.24;100164.16;5121560;27;45266;-63
2023/03/25 00:29:09;;;;;;;;;2.00;0.00;;;;;10.24;85.01;100168.63;5121523;27;45289;-63
2023/03/25 00:31:35;;;;;;;;;5.50;1.00;;;;;10.28;85.02;100162.34;5121111;27;45573;-63
2023/03/25 00:34:00;;;;;;;;;1.50;1.00;;;;;10.34;83.74;100163.09;5120957;27;45353;-63
2023/03/25 00:36:26;;;;;;;;;0.25;0.00;;;;;10.33;82.42;100161.34;5121286;27;45369;-62
2023/03/25 00:38:51;;;;;;;;;4.00;0.00;;;;;10.32;82.16;100157.84;5121573;27;45335;-62
2023/03/25 00:41:24;;;;;;;;;5.50;2.25;;;;;10.29;81.72;100155.31;5120943;27;45592;-63
2023/03/25 00:43:57;;;;;;;;;2.75;1.00;;;;;10.31;81.57;100155.25;5119429;27;45311;-62
2023/03/25 00:46:26;;;;;;;;;2.00;0.25;;;;;10.29;80.98;100150.03;5120738;27;45261;-63
2023/03/25 00:48:52;;;;;;;;;0.25;0.00;;;;;10.35;81.02;100157.78;5120761;27;45380;-63
2023/03/25 00:51:20;;;;;;;;;3.50;1.00;;;;;10.25;81.08;100138.78;5120858;27;45790;-63
2023/03/25 00:53:47;;;;;;;;;2.75;1.25;;;;;10.38;79.79;100156.81;5120863;27;45321;-63
2023/03/25 00:56:12;;;;;;;;;2.25;1.00;;;;;10.40;79.22;100157.66;5120890;27;45259;-63
2023/03/25 00:58:38;;;;;;;;;4.00;2.00;;;;;10.41;78.63;100149.72;5121138;27;45539;-63
2023/03/25 01:01:16;;;;;;;;;4.00;0.00;;;;;10.43;77.99;100145.25;5120657;27;45543;-63
2023/03/25 01:03:45;;;;;;;;;2.00;1.00;;;;;10.38;78.28;100138.41;5120498;27;45463;-63
2023/03/25 01:06:12;;;;;;;;;1.50;0.00;;;;;10.42;78.18;100140.03;5120961;27;45434;-63
2023/03/25 01:08:39;;;;;;;;;5.25;0.75;;;;;10.41;77.70;100143.56;5120913;27;45286;-63
2023/03/25 01:11:05;;;;;;;;;1.25;0.00;;;;;10.43;77.42;100147.88;5120521;27;46615;-63
2023/03/25 01:13:30;;;;;;;;;3.00;2.00;;;;;10.33;77.32;100132.41;5120598;27;45662;-63
2023/03/25 01:15:56;;;;;;;;;0.50;0.50;;;;;10.22;77.53;100103.78;5120647;27;45244;-63
2023/03/25 01:18:21;;;;;;;;;2.00;1.25;;;;;10.51;76.27;100142.34;5120713;27;45344;-63
2023/03/25 01:20:46;;;;;;;;;1.25;1.00;;;;;10.25;76.15;100101.06;5120491;27;45551;-63
2023/03/25 01:23:12;;;;;;;;;4.25;0.00;;;;;10.49;76.52;100140.72;5120451;27;45356;-63
2023/03/25 01:25:37;;;;;;;;;0.50;0.00;;;;;10.49;76.16;100138.06;5120681;27;45190;-63
2023/03/25 01:28:03;;;;;;;;;0.25;0.25;;;;;10.46;76.31;100131.13;5120716;27;45709;-63
2023/03/25 01:30:29;;;;;;;;;2.00;0.00;;;;;10.51;76.30;100130.97;5120304;27;45308;-63
2023/03/25 01:32:55;;;;;;;;;4.50;0.25;;;;;10.52;76.02;100137.97;5120179;27;45440;-63
2023/03/25 01:35:20;;;;;;;;;1.25;0.00;;;;;10.52;75.64;100133.56;5120116;27;45788;-63
2023/03/25 01:37:46;;;;;;;;;0.50;0.50;;;;;10.44;75.67;100114.50;5120744;27;45424;-63
2023/03/25 01:40:18;;;;;;;;;4.00;0.50;;;;;10.55;74.59;100128.19;5119934;27;46601;-63
2023/03/25 01:42:43;;;;;;;;;0.00;0.00;;;;;10.52;75.50;100127.44;5101227;27;45400;-63
2023/03/25 01:45:21;;;;;;;;;2.00;0.00;;;;;10.51;76.09;100125.72;5120243;27;45342;-63
2023/03/25 01:47:51;;;;;;;;;2.25;0.00;;;;;10.47;76.66;100127.59;5120107;27;45224;-64
2023/03/25 01:50:18;;;;;;;;;3.00;1.00;;;;;10.44;77.83;100135.56;5119679;27;47371;-63
2023/03/25 01:52:45;;;;;;;;;3.00;1.00;;;;;10.41;77.40;100123.41;5119974;27;45369;-63
2023/03/25 01:55:11;;;;;;;;;1.00;1.00;;;;;10.38;78.16;100114.72;5119889;27;45510;-63
2023/03/25 01:57:42;;;;;;;;;0.50;0.25;;;;;10.38;77.40;100123.50;5120010;27;45838;-63
2023/03/25 02:00:08;;;;;;;;;2.25;0.00;;;;;10.40;77.31;100128.72;5119982;27;45525;-63
2023/03/25 02:02:35;;;;;;;;;4.25;1.00;;;;;10.39;77.36;100127.81;5119810;27;45396;-63
2023/03/25 02:05:09;;;;;;;;;1.00;1.00;;;;;10.42;77.34;100124.25;5119873;27;45409;-63
2023/03/25 02:07:41;;;;;;;;;0.75;0.50;;;;;10.42;77.63;100130.34;5120243;27;45300;-63
2023/03/25 02:10:09;;;;;;;;;7.00;0.00;;;;;10.40;78.82;100129.56;5119584;27;45342;-63
2023/03/25 02:12:34;;;;;;;;;1.25;0.50;;;;;10.36;79.29;100113.91;5119460;27;45250;-63
2023/03/25 02:15:03;;;;;;;;;0.00;0.00;;;;;10.37;78.55;100116.50;5119917;27;45821;-63
2023/03/25 02:17:53;;;;;;;;;3.00;1.00;;;;;10.36;79.37;100121.81;5119838;27;45579;-63
2023/03/25 02:21:07;;;;;;;;;4.75;1.00;;;;;10.34;79.49;100127.13;5119223;27;45402;-63
2023/03/25 02:23:41;;;;;;;;;3.00;0.00;;;;;10.32;79.43;100122.78;5119464;27;45431;-63
2023/03/25 02:26:32;;;;;;;;;1.00;0.00;;;;;10.06;79.48;100091.13;5118643;27;45480;-63
2023/03/25 02:29:35;;;;;;;;;1.25;0.00;;;;;10.29;79.30;100134.25;5119757;27;45488;-63
2023/03/25 02:32:22;;;;;;;;;2.00;0.25;;;;;10.34;79.02;100135.03;5119269;27;45376;-63
2023/03/25 02:35:08;;;;;;;;;2.00;0.00;;;;;10.35;79.37;100126.19;5119388;27;45229;-63
2023/03/25 02:37:57;;;;;;;;;0.00;0.00;;;;;10.34;79.39;100126.25;5118923;27;45296;-63
2023/03/25 02:40:32;;;;;;;;;1.00;1.00;;;;;10.29;79.61;100118.47;5119555;27;45369;-63
2023/03/25 02:43:13;;;;;;;;;3.00;1.00;;;;;10.29;79.42;100110.56;5119179;27;45729;-63
2023/03/25 02:45:49;;;;;;;;;3.00;1.00;;;;;10.29;79.98;100123.72;5119071;27;45280;-62
2023/03/25 02:48:22;;;;;;;;;4.00;2.00;;;;;10.32;80.22;100146.47;5119022;27;45500;-63
2023/03/25 02:50:55;;;;;;;;;3.25;0.00;;;;;10.27;80.62;100126.41;5119226;27;45209;-63
2023/03/25 02:53:26;;;;;;;;;0.25;0.25;;;;;10.20;81.86;100116.16;5118962;27;45356;-63
2023/03/25 02:55:58;;;;;;;;;1.00;1.00;;;;;10.17;81.73;100108.34;5118857;27;45241;-63
2023/03/25 02:58:24;;;;;;;;;1.00;0.00;;;;;10.02;82.19;100100.03;5119142;27;45244;-63
2023/03/25 03:00:52;;;;;;;;;2.00;2.00;;;;;9.97;82.27;100086.16;5119354;27;45388;-63
2023/03/25 03:03:17;;;;;;;;;0.00;0.00;;;;;9.92;82.10;100095.97;5118808;27;46547;-63
2023/03/25 03:05:50;;;;;;;;;0.00;0.00;;;;;9.83;82.32;100102.38;5118748;27;45450;-63
2023/03/25 03:08:25;;;;;;;;;1.00;0.00;;;;;9.75;81.74;100091.22;5117876;27;45322;-63
2023/03/25 03:10:53;;;;;;;;;1.00;0.00;;;;;9.81;81.93;100108.56;5119091;27;45360;-63
2023/03/25 03:13:32;;;;;;;;;0.00;0.00;;;;;9.79;81.20;100110.38;5118699;27;45456;-63
2023/03/25 03:16:03;;;;;;;;;0.25;0.00;;;;;9.81;81.33;100126.97;5118821;27;45476;-63
2023/03/25 03:18:56;;;;;;;;;0.00;0.00;;;;;9.83;82.10;100131.28;5119087;27;45339;-63
2023/03/25 03:21:50;;;;;;;;;3.00;0.00;;;;;9.76;82.99;100116.59;5035102;28;45445;-63
2023/03/25 03:24:25;;;;;;;;;0.25;0.25;;;;;9.79;83.52;100127.03;5012592;28;47408;-62
2023/03/25 03:27:22;;;;;;;;;4.25;0.75;;;;;9.80;84.19;100122.59;5026664;28;45302;-63
2023/03/25 03:29:53;;;;;;;;;2.00;0.75;;;;;9.75;84.36;100105.19;4995482;28;45510;-63
2023/03/25 03:32:33;;;;;;;;;0.50;0.50;;;;;9.76;84.52;100129.75;4995350;28;45482;-63
2023/03/25 03:35:06;;;;;;;;;3.00;0.25;;;;;9.79;84.69;100116.50;4994903;28;46773;-63
2023/03/25 03:37:36;;;;;;;;;1.75;0.25;;;;;9.73;84.24;100117.53;5014785;28;45443;-63
2023/03/25 03:40:07;;;;;;;;;1.75;1.00;;;;;9.84;83.87;100121.63;5015093;28;45254;-63
2023/03/25 03:42:41;;;;;;;;;1.00;1.00;;;;;9.84;83.20;100119.00;5015189;28;45481;-63
2023/03/25 03:45:15;;;;;;;;;2.00;0.25;;;;;9.79;82.62;100123.50;5014705;28;45529;-63
2023/03/25 03:47:48;;;;;;;;;0.00;0.00;;;;;9.70;82.85;100119.38;5014925;28;45369;-63
2023/03/25 03:50:21;;;;;;;;;0.00;0.00;;;;;9.69;82.56;100117.69;5034960;28;45471;-63
2023/03/25 03:52:58;;;;;;;;;0.75;0.75;;;;;9.65;82.36;100106.38;5034852;28;45465;-62
2023/03/25 03:56:00;;;;;;;;;1.50;0.00;;;;;9.78;81.53;100133.16;5034355;28;45476;-63
2023/03/25 03:58:32;;;;;;;;;0.50;0.50;;;;;9.78;81.75;100135.81;4925562;28;45248;-63
2023/03/25 04:01:15;;;;;;;;;2.25;0.00;;;;;9.81;80.88;100135.72;4917368;28;45396;-63
2023/03/25 04:03:52;;;;;;;;;1.00;0.00;;;;;9.84;80.85;100147.91;4917435;28;45856;-63
2023/03/25 04:06:28;;;;;;;;;1.25;0.00;;;;;9.88;80.27;100152.19;4960333;28;46683;-63
2023/03/25 04:09:17;;;;;;;;;2.50;0.00;;;;;9.85;80.48;100154.91;4994061;28;45314;-63
2023/03/25 04:11:49;;;;;;;;;1.00;0.00;;;;;9.85;80.71;100144.38;4994959;28;45310;-63
2023/03/25 04:14:15;;;;;;;;;0.00;0.00;;;;;9.84;80.47;100135.63;4994930;28;45501;-62
2023/03/25 04:16:44;;;;;;;;;2.00;0.00;;;;;9.76;80.30;100138.47;4994799;28;45325;-63
2023/03/25 04:19:12;;;;;;;;;1.25;0.00;;;;;9.81;80.61;100156.75;4995896;28;45417;-62
2023/03/25 04:21:38;;;;;;;;;3.00;0.00;;;;;9.80;80.31;100160.28;4997971;28;45378;-63
2023/03/25 04:24:07;;;;;;;;;0.50;0.00;;;;;9.78;80.65;100148.94;4998280;28;45330;-63
2023/03/25 04:26:36;;;;;;;;;2.00;0.25;;;;;9.57;80.89;100114.50;4997864;28;46462;-63
2023/03/25 04:29:02;;;;;;;;;1.00;0.00;;;;;9.59;81.04;100123.19;4997892;28;45425;-63
2023/03/25 04:31:30;;;;;;;;;0.25;0.25;;;;;9.80;80.88;100156.78;4998010;28;45475;-63
2023/03/25 04:33:56;;;;;;;;;0.00;0.00;;;;;9.84;80.77;100148.75;5015918;27;45427;-63
2023/03/25 04:36:22;;;;;;;;;0.25;0.25;;;;;9.88;81.00;100165.31;5100241;27;46370;-62
2023/03/25 04:38:48;;;;;;;;;2.00;1.00;;;;;9.87;80.79;100164.44;5100595;27;45264;-63
2023/03/25 04:41:13;;;;;;;;;4.50;2.75;;;;;9.86;81.06;100172.38;5100448;27;45471;-63
2023/03/25 04:43:39;;;;;;;;;6.00;0.75;;;;;9.92;81.18;100177.47;5100823;27;45330;-63
2023/03/25 04:46:06;;;;;;;;;2.50;1.00;;;;;9.95;80.72;100174.75;5100392;27;45457;-63
2023/03/25 04:48:40;;;;;;;;;3.75;0.50;;;;;9.91;80.89;100176.59;5100191;27;45393;-63
2023/03/25 04:51:09;;;;;;;;;2.00;1.00;;;;;9.86;80.97;100181.16;5100423;27;45328;-62
2023/03/25 04:53:34;;;;;;;;;3.00;1.00;;;;;9.80;81.37;100180.44;5099143;27;45559;-63
2023/03/25 04:56:00;;;;;;;;;2.25;2.00;;;;;9.76;81.45;100177.91;5098713;27;46577;-63
2023/03/25 04:58:25;;;;;;;;;0.25;0.00;;;;;9.74;81.67;100189.38;5100247;27;45371;-63
2023/03/25 05:00:51;;;;;;;;;2.00;1.00;;;;;9.75;81.52;100188.47;5100363;27;45421;-62
2023/03/25 05:03:22;;;;;;;;;1.50;1.00;;;;;9.73;81.70;100188.53;5100551;27;45316;-63
2023/03/25 05:05:48;;;;;;;;;1.00;1.00;;;;;9.75;81.18;100197.22;5099656;27;47708;-63
2023/03/25 05:08:14;;;;;;;;;4.00;0.75;;;;;9.71;81.14;100189.47;5099962;27;45296;-63
2023/03/25 05:10:41;;;;;;;;;2.25;1.75;;;;;9.78;81.02;100196.28;5100262;27;45369;-62
2023/03/25 05:13:07;;;;;;;;;1.00;0.00;;;;;9.76;80.77;100182.31;5100156;27;45151;-63
2023/03/25 05:15:38;;;;;;;;;3.25;1.25;;;;;9.84;80.73;100200.50;5099616;27;46492;-63
2023/03/25 05:18:05;;;;;;;;;1.50;0.25;;;;;9.83;80.83;100194.38;5099990;27;45437;-63
2023/03/25 05:20:33;;;;;;;;;2.00;0.00;;;;;9.88;80.61;100203.00;5099677;27;45484;-63
2023/03/25 05:22:59;;;;;;;;;1.00;1.00;;;;;9.89;80.36;100202.09;5099981;27;45375;-63
2023/03/25 05:25:24;;;;;;;;;5.00;1.00;;;;;9.86;80.24;100206.56;5099758;27;45584;-63
2023/03/25 05:27:50;;;;;;;;;1.50;1.00;;;;;9.81;80.45;100198.81;5099737;27;45357;-63
2023/03/25 05:30:15;;;;;;;;;4.00;1.25;;;;;9.80;80.59;100209.38;5099321;27;45305;-63
2023/03/25 05:32:44;;;;;;;;;5.25;2.00;;;;;9.83;80.55;100209.28;5099621;27;45391;-62
2023/03/25 05:35:09;;;;;;;;;0.75;0.75;;;;;9.86;80.79;100201.31;5099540;27;45698;-63
2023/03/25 05:37:36;;;;;;;;;2.75;2.00;;;;;9.83;80.57;100201.41;5099670;27;45265;-63
2023/03/25 05:40:03;;;;;;;;;3.00;1.00;;;;;9.78;80.84;100206.78;5099629;27;45229;-63
2023/03/25 05:42:28;;;;;;;;;3.25;1.00;;;;;9.72;80.87;100205.19;5099778;27;45444;-63
2023/03/25 05:44:53;;;;;;;;;2.00;0.75;;;;;9.79;81.21;100220.78;5099286;27;46117;-63
2023/03/25 05:47:22;;;;;;;;;2.00;2.00;;;;;9.83;81.13;100220.69;5099396;27;45308;-63
2023/03/25 05:49:48;;;;;;;;;2.50;2.50;;;;;9.85;80.97;100210.97;5099407;27;45742;-63
2023/03/25 05:52:15;;;;;;;;;4.75;1.00;;;;;9.89;80.88;100215.25;5099308;27;45222;-63
2023/03/25 05:54:41;;;;;;;;;2.50;1.00;;;;;9.84;80.83;100208.38;5099037;27;45507;-63
2023/03/25 05:57:09;;;;;;;;;5.50;1.50;;;;;9.94;80.18;100202.81;5099013;27;45325;-63
2023/03/25 05:59:37;;;;;;;;;3.00;0.25;;;;;9.99;80.01;100217.59;5099366;27;45387;-63
2023/03/25 06:02:06;;;;;;;;;7.25;1.00;;;;;10.03;80.12;100220.09;5099582;27;45436;-63
2023/03/25 06:04:32;;;;;;;;;6.00;1.50;;;;;10.05;79.77;100214.78;5099066;27;46198;-63
2023/03/25 06:06:58;;;;;;;;;2.25;1.00;;;;;10.08;79.10;100215.56;5098839;27;45251;-63
2023/03/25 06:09:23;;;;;;;;;3.00;1.00;;;;;10.14;79.37;100224.16;5099229;27;45497;-63
2023/03/25 06:11:52;;;;;;;;;2.75;2.00;;;;;10.08;79.35;100214.72;5099478;27;45257;-63
2023/03/25 06:14:17;;;;;;;;;2.00;2.00;;;;;9.99;79.06;100197.44;5098895;27;45428;-63
2023/03/25 06:16:43;;;;;;;;;2.50;2.00;;;;;10.15;79.52;100229.41;5098848;27;45342;-63
2023/03/25 06:19:08;;;;;;;;;5.00;1.00;;;;;10.19;79.27;100228.38;5098902;27;45405;-63
2023/03/25 06:21:34;;;;;;;;;4.00;1.25;;;;;10.03;79.15;100209.56;5098954;27;45469;-63
2023/03/25 06:24:00;;;;;;;;;5.50;0.75;;;;;10.20;79.13;100230.13;5098690;27;46858;-63
2023/03/25 06:26:26;;;;;;;;;9.50;2.00;;;;;10.19;79.18;100235.44;5098710;27;45356;-63
2023/03/25 06:28:51;;;;;;;;;5.50;2.00;;;;;10.21;79.29;100236.22;5098790;27;45305;-63
2023/03/25 06:31:25;;;;;;;;;5.00;1.75;;;;;10.21;78.75;100233.59;5098988;27;45447;-63
2023/03/25 06:33:51;;;;;;;;;3.00;2.00;;;;;10.26;78.92;100248.34;5098431;27;46320;-62
2023/03/25 06:36:18;;;;;;;;;2.50;0.75;;;;;10.25;78.77;100236.13;5098502;27;45286;-63
2023/03/25 06:38:45;;;;;;;;;3.00;2.00;;;;;10.34;78.61;100237.66;5098692;27;45430;-63
2023/03/25 06:41:12;;;;;;;;;3.00;1.00;;;;;10.33;78.74;100240.31;5098977;27;45341;-63
2023/03/25 06:43:38;;;;;;;;;9.00;2.00;;;;;10.38;78.76;100249.81;5097218;27;46442;-63
2023/03/25 06:46:04;;;;;;;;;2.25;2.00;;;;;10.36;78.68;100240.22;5098615;27;45386;-63
2023/03/25 06:48:29;;;;;;;;;1.00;1.00;;;;;10.41;78.70;100252.34;5098233;27;45293;-63
2023/03/25 06:50:54;;;;;;;;;3.00;2.00;;;;;10.43;79.05;100258.41;5098561;27;45360;-63
2023/03/25 06:53:20;;;;;;;;;5.25;2.00;;;;;10.34;78.69;100244.66;5098295;27;45721;-63
2023/03/25 06:55:46;;;;;;;;;4.00;1.00;;;;;10.50;78.84;100260.84;5098344;27;45399;-63
2023/03/25 06:58:12;;;;;;;;;7.75;2.00;;;;;10.49;79.05;100257.38;5098608;27;45317;-63
2023/03/25 07:00:38;;;;;;;;;2.75;0.00;;;;;10.39;78.62;100234.88;5098557;27;45147;-63
2023/03/25 07:03:03;;;;;;;;;3.00;2.00;;;;;10.50;78.42;100252.97;5098321;27;46353;-63
2023/03/25 07:05:28;;;;;;;;;1.00;1.00;;;;;10.60;78.75;100267.56;5098476;27;45269;-63
2023/03/25 07:07:54;;;;;;;;;6.00;1.00;;;;;10.64;78.52;100263.94;5098057;27;45459;-62
2023/03/25 07:10:19;;;;;;;;;2.50;1.50;;;;;10.46;78.19;100225.88;5098466;27;45440;-62
2023/03/25 07:12:45;;;;;;;;;1.75;1.75;;;;;10.78;77.74;100279.31;5098014;27;45455;-63
2023/03/25 07:15:10;;;;;;;;;7.75;2.00;;;;;10.79;77.19;100279.25;5097886;27;45333;-62
2023/03/25 07:17:36;;;;;;;;;2.25;0.00;;;;;10.82;77.17;100280.94;5098329;27;45609;-62
2023/03/25 07:20:03;;;;;;;;;4.75;1.75;;;;;10.87;76.28;100262.34;5098158;27;45304;-62
2023/03/25 07:22:29;;;;;;;;;3.75;1.50;;;;;10.93;76.22;100276.19;5097859;27;45801;-62
2023/03/25 07:24:54;;;;;;;;;5.75;2.00;;;;;10.92;76.15;100282.38;5097920;27;45399;-62
2023/03/25 07:27:19;;;;;;;;;4.75;2.00;;;;;10.95;76.28;100290.19;5098072;27;45900;-64
2023/03/25 07:29:45;;;;;;;;;5.75;1.00;;;;;10.93;75.50;100256.88;5098351;27;45363;-63
2023/03/25 07:32:10;;;;;;;;;3.50;1.00;;;;;11.04;75.46;100275.00;5104910;27;45526;-62
2023/03/25 07:34:36;;;;;;;;;3.50;3.00;;;;;11.18;74.81;100285.91;5117761;27;45281;-63
2023/03/25 07:37:02;;;;;;;;;2.00;0.00;;;;;11.19;73.91;100279.75;5118211;27;45367;-62
2023/03/25 07:39:28;;;;;;;;;3.00;3.00;;;;;11.32;73.97;100303.94;5118527;27;45361;-63
2023/03/25 07:41:53;;;;;;;;;6.00;1.50;;;;;11.17;73.78;100267.53;5116863;27;47222;-63
2023/03/25 07:44:20;;;;;;;;;1.00;1.00;;;;;11.27;73.57;100290.91;5117263;27;45348;-63
2023/03/25 07:46:46;;;;;;;;;3.00;1.00;;;;;11.36;73.84;100302.91;5116646;27;45340;-63
2023/03/25 07:49:12;;;;;;;;;3.00;1.00;;;;;11.46;73.31;100311.41;5117231;27;45634;-64
2023/03/25 07:51:37;;;;;;;;;6.50;1.50;;;;;11.56;72.62;100298.75;5100811;27;45784;-64
2023/03/25 07:54:03;;;;;;;;;7.25;2.75;;;;;11.70;71.83;100299.13;5139840;27;45452;-63
2023/03/25 07:56:28;;;;;;;;;1.00;1.00;;;;;11.57;71.89;100269.69;5142699;27;45432;-64
2023/03/25 07:58:53;;;;;;;;;3.50;1.00;;;;;11.96;71.42;100318.50;5142887;27;45434;-64
2023/03/25 08:01:19;;;;;;;;;3.25;1.75;;;;;11.93;71.28;100298.34;5142445;27;45462;-63
2023/03/25 08:03:44;;;;;;;;;3.25;2.00;;;;;12.06;70.30;100308.47;5142460;27;45446;-63
2023/03/25 08:06:09;;;;;;;;;7.75;2.00;;;;;12.09;70.13;100318.91;5142438;27;45368;-63
2023/03/25 08:08:35;;;;;;;;;4.25;3.00;;;;;12.08;70.64;100340.94;5142277;27;45399;-63
2023/03/25 08:11:00;;;;;;;;;7.25;1.25;;;;;12.00;71.45;100334.16;5142299;27;46169;-63
2023/03/25 08:13:26;;;;;;;;;10.00;3.00;;;;;12.00;71.57;100330.66;5141862;27;45332;-62
2023/03/25 08:15:52;;;;;;;;;5.50;2.00;;;;;12.05;71.08;100331.34;5142253;27;45363;-63
2023/03/25 08:18:18;;;;;;;;;10.50;3.00;;;;;12.04;70.96;100323.50;5142602;27;45561;-62
2023/03/25 08:20:44;;;;;;;;;4.25;1.50;;;;;12.12;71.13;100326.72;5142060;27;46180;-63
2023/03/25 08:23:11;;;;;;;;;2.00;0.50;;;;;12.25;70.54;100328.00;5142129;27;45378;-63
2023/03/25 08:25:38;;;;;;;;;3.75;2.00;;;;;12.07;70.51;100287.31;5142183;27;45319;-63
2023/03/25 08:28:05;;;;;;;;;8.75;1.75;;;;;12.45;68.96;100326.41;5142251;27;45359;-63
2023/03/25 08:30:37;;;;;;;;;4.00;3.00;;;;;12.60;67.85;100323.19;5124837;27;45510;-63
2023/03/25 08:33:06;;;;;;;;;4.25;2.00;;;;;12.79;67.20;100338.34;5120923;27;45370;-63
2023/03/25 08:35:34;;;;;;;;;5.25;2.00;;;;;12.89;67.38;100337.94;5121153;27;45300;-63
2023/03/25 08:38:00;;;;;;;;;4.25;1.00;;;;;13.22;66.34;100328.72;5121419;27;45393;-63
2023/03/25 08:40:26;;;;;;;;;9.25;2.00;;;;;13.47;64.34;100336.53;5120905;27;46052;-63
2023/03/25 08:42:51;;;;;;;;;3.75;3.00;;;;;13.32;64.12;100353.84;5120975;27;45417;-63
2023/03/25 08:45:17;;;;;;;;;4.75;1.00;;;;;13.26;64.55;100353.22;5121172;27;45681;-63
2023/03/25 08:47:44;;;;;;;;;4.25;0.75;;;;;13.39;64.90;100357.16;5121133;27;45354;-63
2023/03/25 08:50:10;;;;;;;;;4.50;2.25;;;;;13.37;64.60;100357.19;5120830;27;46346;-63
2023/03/25 08:52:35;;;;;;;;;5.00;2.25;;;;;13.37;64.07;100366.91;5120704;27;45318;-63
2023/03/25 08:55:01;;;;;;;;;6.50;1.50;;;;;13.37;64.14;100372.19;5120166;27;45340;-62
2023/03/25 08:57:26;;;;;;;;;7.75;2.00;;;;;13.43;64.43;100366.66;5120799;27;45510;-63
2023/03/25 08:59:52;;;;;;;;;5.50;2.25;;;;;13.43;63.38;100377.22;5120431;27;45485;-63
2023/03/25 09:02:17;;;;;;;;;2.50;1.00;;;;;13.55;63.39;100375.91;5120659;27;45252;-63
2023/03/25 09:04:42;;;;;;;;;2.50;2.00;;;;;13.66;62.88;100370.16;5120508;27;45409;-63
2023/03/25 09:07:09;;;;;;;;;3.00;3.00;;;;;13.65;62.89;100369.31;5119573;27;45500;-63
2023/03/25 09:09:36;;;;;;;;;5.25;2.25;;;;;13.62;62.87;100373.84;5120198;27;47413;-64
2023/03/25 09:12:02;;;;;;;;;3.50;2.00;;;;;13.65;61.08;100379.00;5120271;27;45388;-64
2023/03/25 09:14:28;;;;;;;;;2.00;2.00;;;;;13.69;61.98;100368.22;5120849;27;45410;-64
2023/03/25 09:16:53;;;;;;;;;5.50;2.50;;;;;13.75;60.74;100378.56;5120515;27;45491;-64
2023/03/25 09:19:18;;;;;;;;;5.00;2.25;;;;;13.69;61.22;100373.50;5120252;27;46180;-64
2023/03/25 09:21:44;;;;;;;;;4.75;3.50;;;;;13.49;60.82;100347.03;5120550;27;45505;-64
2023/03/25 09:24:09;;;;;;;;;13.25;1.75;;;;;13.54;61.49;100374.16;5120286;27;45307;-64
2023/03/25 09:26:35;;;;;;;;;3.00;2.00;;;;;13.34;62.31;100357.31;5120675;27;45303;-63
2023/03/25 09:29:01;;;;;;;;;3.00;1.75;;;;;13.44;61.74;100364.91;5120035;27;46343;-64
2023/03/25 09:31:27;;;;;;;;;5.00;2.00;;;;;13.45;62.49;100379.81;5119818;27;45189;-64
2023/03/25 09:33:52;;;;;;;;;1.75;1.00;;;;;13.41;62.63;100365.88;5120309;27;45224;-64
2023/03/25 09:36:18;;;;;;;;;4.00;2.25;;;;;13.70;60.84;100377.88;5120379;27;45471;-65
2023/03/25 09:38:43;;;;;;;;;8.75;1.25;;;;;13.92;60.15;100387.56;5120092;27;46543;-64
2023/03/25 09:41:43;;;;;;;;;3.25;1.75;;;;;13.91;60.53;100383.19;5101732;27;45482;-64
2023/03/25 09:44:26;;;;;;;;;6.25;2.25;;;;;13.80;61.27;100381.03;5036493;28;45539;-64
2023/03/25 09:46:52;;;;;;;;;5.75;1.75;;;;;13.96;60.66;100377.72;5036742;28;45407;-63
2023/03/25 09:49:36;;;;;;;;;4.75;2.00;;;;;14.70;59.93;100391.25;5048295;28;46252;-64
2023/03/25 09:52:03;;;;;;;;;5.25;4.00;;;;;14.94;56.99;100381.31;5059317;28;45404;-64
2023/03/25 09:54:32;;;;;;;;;1.75;0.00;;;;;15.74;54.52;100378.34;5076689;28;45397;-63
2023/03/25 09:57:05;;;;;;;;;8.25;1.50;;;;;16.52;53.24;100371.66;5076989;28;45480;-64
2023/03/25 09:59:47;;;;;;;;;3.00;1.25;;;;;16.91;50.53;100388.22;5076669;28;45464;-63
2023/03/25 10:02:43;;;;;;;;;4.00;2.00;;;;;17.09;51.45;100414.75;5076227;28;45852;-64
2023/03/25 10:05:18;;;;;;;;;1.75;1.00;;;;;16.97;50.90;100401.19;5076755;28;45404;-64
2023/03/25 10:08:00;;;;;;;;;1.75;1.75;;;;;16.54;49.73;100404.34;5076678;28;45412;-64
2023/03/25 10:10:25;;;;;;;;;2.75;0.75;;;;;16.47;50.10;100418.91;5076513;28;45636;-64
2023/03/25 10:13:05;;;;;;;;;2.00;1.25;;;;;17.50;50.68;100406.22;5076350;28;45447;-64
2023/03/25 10:15:57;;;;;;;;;2.50;1.25;;;;;17.97;48.39;100386.66;5076560;28;45336;-64
2023/03/25 10:18:32;;;;;;;;;2.00;1.00;;;;;17.70;48.77;100405.09;5076397;28;45347;-64
2023/03/25 10:21:07;;;;;;;;;4.25;1.25;;;;;17.44;49.13;100395.94;5107965;27;45962;-64
2023/03/25 10:23:40;;;;;;;;;2.50;1.25;;;;;17.57;49.01;100399.59;5140373;27;45661;-64
2023/03/25 10:26:29;;;;;;;;;3.75;2.00;;;;;17.37;48.73;100419.41;5140481;27;45419;-64
2023/03/25 10:29:09;;;;;;;;;3.50;1.00;;;;;16.95;49.08;100396.88;5140725;27;45292;-64
2023/03/25 10:31:41;;;;;;;;;3.00;1.75;;;;;16.75;49.84;100421.88;5139866;27;45434;-64
2023/03/25 10:34:16;;;;;;;;;1.00;1.00;;;;;16.35;50.21;100407.13;5139990;27;45253;-64
2023/03/25 10:36:48;;;;;;;;;2.00;1.00;;;;;16.13;50.23;100417.13;5140556;27;45331;-64
2023/03/25 10:39:18;;;;;;;;;1.75;1.50;;;;;15.76;51.15;100403.03;5140362;27;45331;-64
2023/03/25 10:41:50;;;;;;;;;2.75;1.00;;;;;15.77;52.74;100420.66;5139909;27;46784;-64
2023/03/25 10:44:17;;;;;;;;;1.75;1.75;;;;;16.06;51.94;100395.34;5139879;27;45347;-64
2023/03/25 10:47:05;;;;;;;;;4.00;2.00;;;;;16.60;51.25;100420.88;5140100;27;45324;-64
2023/03/25 10:49:32;;;;;;;;;6.25;1.75;;;;;16.41;49.93;100426.31;5140088;27;45307;-64
2023/03/25 10:51:58;;;;;;;;;2.50;0.50;;;;;16.06;52.10;100421.91;5139656;27;46149;-64
2023/03/25 10:54:46;;;;;;;;;4.25;1.00;;;;;15.90;54.57;100411.22;5121199;27;45573;-64
2023/03/25 10:57:20;;;;;;;;;9.75;4.00;;;;;15.88;54.72;100422.84;5139948;27;45331;-64
2023/03/25 11:00:15;;;;;;;;;3.00;2.00;;;;;15.65;54.61;100432.75;5140047;27;45377;-64
2023/03/25 11:02:41;;;;;;;;;4.00;0.75;;;;;15.29;56.00;100439.78;5139694;27;46245;-64
2023/03/25 11:05:07;;;;;;;;;2.75;0.75;;;;;15.25;56.74;100448.81;5138639;27;45449;-64
2023/03/25 11:07:33;;;;;;;;;2.25;1.00;;;;;15.29;57.05;100461.00;5139683;27;45362;-65
2023/03/25 11:10:14;;;;;;;;;1.00;1.00;;;;;15.47;57.02;100447.78;5139596;27;45445;-65
2023/03/25 11:12:47;;;;;;;;;3.50;1.00;;;;;15.48;56.92;100454.78;5139281;27;47080;-64
2023/03/25 11:15:20;;;;;;;;;2.00;0.75;;;;;15.51;55.93;100452.03;5139220;27;45794;-65
2023/03/25 11:17:46;;;;;;;;;4.25;1.75;;;;;15.29;56.88;100446.84;5139630;27;45274;-65
2023/03/25 11:20:24;;;;;;;;;1.50;1.50;;;;;15.18;57.65;100462.44;5139555;27;45524;-65
2023/03/25 11:22:52;;;;;;;;;1.75;0.00;;;;;14.94;58.40;100460.84;5139170;27;46678;-65
2023/03/25 11:25:24;;;;;;;;;2.25;1.00;;;;;15.13;59.38;100460.84;5139467;27;45438;-65
2023/03/25 11:28:00;;;;;;;;;0.75;0.00;;;;;15.37;59.40;100457.13;5139739;27;45468;-65
2023/03/25 11:30:26;;;;;;;;;3.75;0.75;;;;;15.41;58.50;100443.63;5145983;27;45459;-65
2023/03/25 11:33:05;;;;;;;;;3.75;1.00;;;;;15.59;58.65;100470.22;5145823;27;46785;-65
2023/03/25 11:35:36;;;;;;;;;2.75;2.00;;;;;15.50;59.29;100451.13;5146242;27;45338;-65
2023/03/25 11:38:18;;;;;;;;;6.25;2.25;;;;;15.44;59.52;100475.31;5146099;27;45304;-65
2023/03/25 11:40:56;;;;;;;;;4.00;0.75;;;;;15.53;58.86;100462.56;5146069;27;45295;-65